sensor_id;sensor_type;location;lat;lon;timestamp;P1;durP1;ratioP1;P2;durP2;ratioP2
43678;SDS011;29279;50.858;4.392;2023-05-07T00:00:27;14.95;;;4.30;;
43678;SDS011;29279;50.858;4.392;2023-05-07T00:02:53;10.75;;;3.75;;
43678;SDS011;29279;50.858;4.392;2023-05-07T00:05:19;13.77;;;5.05;;
43678;SDS011;29279;50.858;4.392;2023-05-07T00:07:45;15.85;;;5.00;;
43678;SDS011;29279;50.858;4.392;2023-05-07T00:10:10;11.23;;;4.68;;
43678;SDS011;29279;50.858;4.392;2023-05-07T00:12:37;11.52;;;4.05;;
43678;SDS011;29279;50.858;4.392;2023-05-07T00:15:03;9.93;;;4.25;;
43678;SDS011;29279;50.858;4.392;2023-05-07T00:17:30;12.05;;;4.32;;
43678;SDS011;29279;50.858;4.392;2023-05-07T00:19:55;12.35;;;3.60;;
43678;SDS011;29279;50.858;4.392;2023-05-07T00:22:21;15.45;;;4.30;;
43678;SDS011;29279;50.858;4.392;2023-05-07T00:24:47;9.85;;;3.35;;
43678;SDS011;29279;50.858;4.392;2023-05-07T00:27:12;9.95;;;3.80;;
43678;SDS011;29279;50.858;4.392;2023-05-07T00:29:38;11.55;;;3.88;;
43678;SDS011;29279;50.858;4.392;2023-05-07T00:32:04;14.48;;;4.35;;
43678;SDS011;29279;50.858;4.392;2023-05-07T00:34:30;12.85;;;4.10;;
43678;SDS011;29279;50.858;4.392;2023-05-07T00:36:55;16.92;;;4.55;;
43678;SDS011;29279;50.858;4.392;2023-05-07T00:39:21;12.05;;;4.45;;
43678;SDS011;29279;50.858;4.392;2023-05-07T00:41:47;16.42;;;4.80;;
43678;SDS011;29279;50.858;4.392;2023-05-07T00:44:13;10.65;;;3.80;;
43678;SDS011;29279;50.858;4.392;2023-05-07T00:46:43;13.68;;;4.38;;
43678;SDS011;29279;50.858;4.392;2023-05-07T00:49:10;11.45;;;3.58;;
43678;SDS011;29279;50.858;4.392;2023-05-07T00:51:36;13.00;;;3.30;;
43678;SDS011;29279;50.858;4.392;2023-05-07T00:54:03;13.50;;;4.60;;
43678;SDS011;29279;50.858;4.392;2023-05-07T00:56:28;12.15;;;3.45;;
43678;SDS011;29279;50.858;4.392;2023-05-07T00:58:54;11.90;;;3.30;;
43678;SDS011;29279;50.858;4.392;2023-05-07T01:01:20;13.27;;;3.90;;
43678;SDS011;29279;50.858;4.392;2023-05-07T01:03:46;15.90;;;3.95;;
43678;SDS011;29279;50.858;4.392;2023-05-07T01:06:12;11.98;;;3.33;;
43678;SDS011;29279;50.858;4.392;2023-05-07T01:08:41;12.75;;;3.95;;
43678;SDS011;29279;50.858;4.392;2023-05-07T01:11:07;10.13;;;3.15;;
43678;SDS011;29279;50.858;4.392;2023-05-07T01:13:34;12.85;;;3.53;;
43678;SDS011;29279;50.858;4.392;2023-05-07T01:16:01;12.15;;;3.63;;
43678;SDS011;29279;50.858;4.392;2023-05-07T01:18:28;10.57;;;3.35;;
43678;SDS011;29279;50.858;4.392;2023-05-07T01:20:55;9.32;;;3.03;;
43678;SDS011;29279;50.858;4.392;2023-05-07T01:23:23;21.63;;;4.07;;
43678;SDS011;29279;50.858;4.392;2023-05-07T01:25:53;14.68;;;4.20;;
43678;SDS011;29279;50.858;4.392;2023-05-07T01:28:19;11.13;;;3.30;;
43678;SDS011;29279;50.858;4.392;2023-05-07T01:30:46;13.13;;;3.90;;
43678;SDS011;29279;50.858;4.392;2023-05-07T01:33:18;11.32;;;3.58;;
43678;SDS011;29279;50.858;4.392;2023-05-07T01:35:47;11.20;;;3.35;;
43678;SDS011;29279;50.858;4.392;2023-05-07T01:38:15;10.20;;;3.25;;
43678;SDS011;29279;50.858;4.392;2023-05-07T01:40:42;9.82;;;3.08;;
43678;SDS011;29279;50.858;4.392;2023-05-07T01:43:08;10.90;;;3.50;;
43678;SDS011;29279;50.858;4.392;2023-05-07T01:45:35;9.45;;;3.50;;
43678;SDS011;29279;50.858;4.392;2023-05-07T01:48:02;15.35;;;3.63;;
43678;SDS011;29279;50.858;4.392;2023-05-07T01:50:29;12.13;;;3.30;;
43678;SDS011;29279;50.858;4.392;2023-05-07T01:52:56;14.32;;;3.58;;
43678;SDS011;29279;50.858;4.392;2023-05-07T01:55:22;15.05;;;4.30;;
43678;SDS011;29279;50.858;4.392;2023-05-07T01:57:48;13.70;;;3.30;;
43678;SDS011;29279;50.858;4.392;2023-05-07T02:00:14;14.35;;;4.10;;
43678;SDS011;29279;50.858;4.392;2023-05-07T02:02:40;18.88;;;2.90;;
43678;SDS011;29279;50.858;4.392;2023-05-07T02:05:06;13.38;;;3.53;;
43678;SDS011;29279;50.858;4.392;2023-05-07T02:07:32;13.90;;;3.85;;
43678;SDS011;29279;50.858;4.392;2023-05-07T02:09:57;12.82;;;3.38;;
43678;SDS011;29279;50.858;4.392;2023-05-07T02:12:23;11.95;;;3.30;;
43678;SDS011;29279;50.858;4.392;2023-05-07T02:14:49;8.88;;;3.70;;
43678;SDS011;29279;50.858;4.392;2023-05-07T02:17:15;11.38;;;3.42;;
43678;SDS011;29279;50.858;4.392;2023-05-07T02:19:40;12.77;;;3.45;;
43678;SDS011;29279;50.858;4.392;2023-05-07T02:22:07;12.52;;;3.35;;
43678;SDS011;29279;50.858;4.392;2023-05-07T02:24:32;17.48;;;3.53;;
43678;SDS011;29279;50.858;4.392;2023-05-07T02:26:58;13.48;;;3.78;;
43678;SDS011;29279;50.858;4.392;2023-05-07T02:29:24;14.00;;;4.18;;
43678;SDS011;29279;50.858;4.392;2023-05-07T02:31:49;19.40;;;4.25;;
43678;SDS011;29279;50.858;4.392;2023-05-07T02:34:18;14.25;;;3.58;;
43678;SDS011;29279;50.858;4.392;2023-05-07T02:36:45;10.68;;;3.50;;
43678;SDS011;29279;50.858;4.392;2023-05-07T02:39:11;12.10;;;3.88;;
43678;SDS011;29279;50.858;4.392;2023-05-07T02:41:37;23.60;;;4.13;;
43678;SDS011;29279;50.858;4.392;2023-05-07T02:44:03;16.80;;;4.10;;
43678;SDS011;29279;50.858;4.392;2023-05-07T02:46:29;11.60;;;3.33;;
43678;SDS011;29279;50.858;4.392;2023-05-07T02:48:55;18.35;;;4.07;;
43678;SDS011;29279;50.858;4.392;2023-05-07T02:51:21;12.18;;;3.50;;
43678;SDS011;29279;50.858;4.392;2023-05-07T02:53:47;12.32;;;3.90;;
43678;SDS011;29279;50.858;4.392;2023-05-07T02:56:13;11.93;;;3.75;;
43678;SDS011;29279;50.858;4.392;2023-05-07T02:58:39;14.13;;;3.78;;
43678;SDS011;29279;50.858;4.392;2023-05-07T03:01:05;20.25;;;4.00;;
43678;SDS011;29279;50.858;4.392;2023-05-07T03:03:31;10.25;;;3.40;;
43678;SDS011;29279;50.858;4.392;2023-05-07T03:05:57;18.08;;;4.55;;
43678;SDS011;29279;50.858;4.392;2023-05-07T03:08:23;10.18;;;3.50;;
43678;SDS011;29279;50.858;4.392;2023-05-07T03:10:49;11.90;;;3.38;;
43678;SDS011;29279;50.858;4.392;2023-05-07T03:13:14;18.10;;;4.25;;
43678;SDS011;29279;50.858;4.392;2023-05-07T03:15:40;10.88;;;3.67;;
43678;SDS011;29279;50.858;4.392;2023-05-07T03:18:06;10.20;;;3.53;;
43678;SDS011;29279;50.858;4.392;2023-05-07T03:20:32;10.25;;;3.47;;
43678;SDS011;29279;50.858;4.392;2023-05-07T03:22:57;12.70;;;3.42;;
43678;SDS011;29279;50.858;4.392;2023-05-07T03:25:23;16.67;;;4.22;;
43678;SDS011;29279;50.858;4.392;2023-05-07T03:27:49;12.25;;;4.20;;
43678;SDS011;29279;50.858;4.392;2023-05-07T03:30:14;16.58;;;4.90;;
43678;SDS011;29279;50.858;4.392;2023-05-07T03:32:40;13.23;;;4.20;;
43678;SDS011;29279;50.858;4.392;2023-05-07T03:35:06;14.95;;;4.30;;
43678;SDS011;29279;50.858;4.392;2023-05-07T03:37:32;11.95;;;3.65;;
43678;SDS011;29279;50.858;4.392;2023-05-07T03:39:58;17.02;;;4.13;;
43678;SDS011;29279;50.858;4.392;2023-05-07T03:42:24;17.67;;;4.32;;
43678;SDS011;29279;50.858;4.392;2023-05-07T03:44:49;15.00;;;4.38;;
43678;SDS011;29279;50.858;4.392;2023-05-07T03:47:15;12.10;;;4.25;;
43678;SDS011;29279;50.858;4.392;2023-05-07T03:49:41;14.18;;;4.05;;
43678;SDS011;29279;50.858;4.392;2023-05-07T03:52:06;13.52;;;4.30;;
43678;SDS011;29279;50.858;4.392;2023-05-07T03:54:32;12.02;;;4.18;;
43678;SDS011;29279;50.858;4.392;2023-05-07T03:56:58;16.63;;;3.95;;
43678;SDS011;29279;50.858;4.392;2023-05-07T03:59:24;14.32;;;4.97;;
43678;SDS011;29279;50.858;4.392;2023-05-07T04:01:49;21.63;;;4.72;;
43678;SDS011;29279;50.858;4.392;2023-05-07T04:04:15;18.25;;;3.85;;
43678;SDS011;29279;50.858;4.392;2023-05-07T04:06:41;12.48;;;4.05;;
43678;SDS011;29279;50.858;4.392;2023-05-07T04:09:07;12.90;;;3.83;;
43678;SDS011;29279;50.858;4.392;2023-05-07T04:11:33;8.93;;;3.45;;
43678;SDS011;29279;50.858;4.392;2023-05-07T04:13:58;15.07;;;3.75;;
43678;SDS011;29279;50.858;4.392;2023-05-07T04:16:24;10.13;;;3.63;;
43678;SDS011;29279;50.858;4.392;2023-05-07T04:18:50;13.60;;;3.63;;
43678;SDS011;29279;50.858;4.392;2023-05-07T04:21:16;14.18;;;4.15;;
43678;SDS011;29279;50.858;4.392;2023-05-07T04:23:43;19.33;;;4.65;;
43678;SDS011;29279;50.858;4.392;2023-05-07T04:26:08;17.83;;;4.60;;
43678;SDS011;29279;50.858;4.392;2023-05-07T04:28:34;12.20;;;3.47;;
43678;SDS011;29279;50.858;4.392;2023-05-07T04:31:00;21.08;;;5.07;;
43678;SDS011;29279;50.858;4.392;2023-05-07T04:33:26;12.27;;;4.03;;
43678;SDS011;29279;50.858;4.392;2023-05-07T04:35:51;13.95;;;4.20;;
43678;SDS011;29279;50.858;4.392;2023-05-07T04:38:17;10.18;;;3.53;;
43678;SDS011;29279;50.858;4.392;2023-05-07T04:40:43;14.68;;;3.50;;
43678;SDS011;29279;50.858;4.392;2023-05-07T04:43:09;15.07;;;3.58;;
43678;SDS011;29279;50.858;4.392;2023-05-07T04:45:35;13.80;;;3.83;;
43678;SDS011;29279;50.858;4.392;2023-05-07T04:48:01;14.45;;;3.83;;
43678;SDS011;29279;50.858;4.392;2023-05-07T04:50:27;10.43;;;3.70;;
43678;SDS011;29279;50.858;4.392;2023-05-07T04:52:53;16.48;;;4.65;;
43678;SDS011;29279;50.858;4.392;2023-05-07T04:55:18;12.10;;;3.30;;
43678;SDS011;29279;50.858;4.392;2023-05-07T04:57:44;16.25;;;3.97;;
43678;SDS011;29279;50.858;4.392;2023-05-07T05:00:10;14.30;;;4.25;;
43678;SDS011;29279;50.858;4.392;2023-05-07T05:02:39;10.13;;;4.20;;
43678;SDS011;29279;50.858;4.392;2023-05-07T05:05:05;18.23;;;3.95;;
43678;SDS011;29279;50.858;4.392;2023-05-07T05:07:31;10.90;;;4.10;;
43678;SDS011;29279;50.858;4.392;2023-05-07T05:09:57;14.20;;;4.20;;
43678;SDS011;29279;50.858;4.392;2023-05-07T05:12:23;10.50;;;3.67;;
43678;SDS011;29279;50.858;4.392;2023-05-07T05:14:49;13.65;;;3.90;;
43678;SDS011;29279;50.858;4.392;2023-05-07T05:17:15;9.73;;;3.80;;
43678;SDS011;29279;50.858;4.392;2023-05-07T05:19:40;11.45;;;3.92;;
43678;SDS011;29279;50.858;4.392;2023-05-07T05:22:06;22.23;;;3.90;;
43678;SDS011;29279;50.858;4.392;2023-05-07T05:24:32;11.60;;;3.63;;
43678;SDS011;29279;50.858;4.392;2023-05-07T05:26:57;9.82;;;3.53;;
43678;SDS011;29279;50.858;4.392;2023-05-07T05:29:27;16.30;;;4.15;;
43678;SDS011;29279;50.858;4.392;2023-05-07T05:31:52;11.25;;;3.33;;
43678;SDS011;29279;50.858;4.392;2023-05-07T05:34:18;10.35;;;2.92;;
43678;SDS011;29279;50.858;4.392;2023-05-07T05:36:47;14.82;;;3.22;;
43678;SDS011;29279;50.858;4.392;2023-05-07T05:39:12;17.45;;;3.20;;
43678;SDS011;29279;50.858;4.392;2023-05-07T05:41:40;17.67;;;4.13;;
43678;SDS011;29279;50.858;4.392;2023-05-07T05:44:06;13.50;;;3.30;;
43678;SDS011;29279;50.858;4.392;2023-05-07T05:46:32;15.27;;;4.53;;
43678;SDS011;29279;50.858;4.392;2023-05-07T05:48:57;10.15;;;3.80;;
43678;SDS011;29279;50.858;4.392;2023-05-07T05:51:23;20.52;;;4.70;;
43678;SDS011;29279;50.858;4.392;2023-05-07T05:53:49;9.00;;;3.78;;
43678;SDS011;29279;50.858;4.392;2023-05-07T05:56:15;15.18;;;4.00;;
43678;SDS011;29279;50.858;4.392;2023-05-07T05:58:41;12.45;;;4.40;;
43678;SDS011;29279;50.858;4.392;2023-05-07T06:01:07;13.10;;;4.75;;
43678;SDS011;29279;50.858;4.392;2023-05-07T06:03:33;15.93;;;5.65;;
43678;SDS011;29279;50.858;4.392;2023-05-07T06:05:58;15.65;;;5.45;;
43678;SDS011;29279;50.858;4.392;2023-05-07T06:08:25;19.92;;;5.47;;
43678;SDS011;29279;50.858;4.392;2023-05-07T06:10:54;16.63;;;4.72;;
43678;SDS011;29279;50.858;4.392;2023-05-07T06:13:20;17.17;;;5.35;;
43678;SDS011;29279;50.858;4.392;2023-05-07T06:15:45;18.08;;;4.95;;
43678;SDS011;29279;50.858;4.392;2023-05-07T06:18:11;14.48;;;4.47;;
43678;SDS011;29279;50.858;4.392;2023-05-07T06:20:37;12.77;;;4.63;;
43678;SDS011;29279;50.858;4.392;2023-05-07T06:23:02;12.90;;;4.47;;
43678;SDS011;29279;50.858;4.392;2023-05-07T06:25:28;12.80;;;3.90;;
43678;SDS011;29279;50.858;4.392;2023-05-07T06:27:54;16.90;;;4.40;;
43678;SDS011;29279;50.858;4.392;2023-05-07T06:30:19;14.98;;;3.90;;
43678;SDS011;29279;50.858;4.392;2023-05-07T06:32:45;12.35;;;3.92;;
43678;SDS011;29279;50.858;4.392;2023-05-07T06:35:11;12.50;;;4.03;;
43678;SDS011;29279;50.858;4.392;2023-05-07T06:37:37;10.80;;;3.88;;
43678;SDS011;29279;50.858;4.392;2023-05-07T06:40:07;11.77;;;3.28;;
43678;SDS011;29279;50.858;4.392;2023-05-07T06:42:33;12.23;;;3.85;;
43678;SDS011;29279;50.858;4.392;2023-05-07T06:45:00;11.35;;;4.25;;
43678;SDS011;29279;50.858;4.392;2023-05-07T06:47:26;17.20;;;3.95;;
43678;SDS011;29279;50.858;4.392;2023-05-07T06:49:51;8.80;;;3.42;;
43678;SDS011;29279;50.858;4.392;2023-05-07T06:52:17;9.05;;;3.80;;
43678;SDS011;29279;50.858;4.392;2023-05-07T06:54:43;16.25;;;4.03;;
43678;SDS011;29279;50.858;4.392;2023-05-07T06:57:08;16.33;;;4.00;;
43678;SDS011;29279;50.858;4.392;2023-05-07T06:59:34;11.57;;;3.78;;
43678;SDS011;29279;50.858;4.392;2023-05-07T07:01:59;9.75;;;3.55;;
43678;SDS011;29279;50.858;4.392;2023-05-07T07:04:25;9.48;;;3.30;;
43678;SDS011;29279;50.858;4.392;2023-05-07T07:06:52;10.13;;;3.83;;
43678;SDS011;29279;50.858;4.392;2023-05-07T07:09:18;12.55;;;4.05;;
43678;SDS011;29279;50.858;4.392;2023-05-07T07:11:44;8.57;;;3.13;;
43678;SDS011;29279;50.858;4.392;2023-05-07T07:14:10;15.55;;;3.72;;
43678;SDS011;29279;50.858;4.392;2023-05-07T07:16:35;10.27;;;3.67;;
43678;SDS011;29279;50.858;4.392;2023-05-07T07:19:01;15.05;;;4.07;;
43678;SDS011;29279;50.858;4.392;2023-05-07T07:21:26;12.95;;;3.50;;
43678;SDS011;29279;50.858;4.392;2023-05-07T07:23:52;9.82;;;3.67;;
43678;SDS011;29279;50.858;4.392;2023-05-07T07:26:18;10.80;;;4.15;;
43678;SDS011;29279;50.858;4.392;2023-05-07T07:28:44;11.27;;;4.53;;
43678;SDS011;29279;50.858;4.392;2023-05-07T07:31:10;12.40;;;3.58;;
43678;SDS011;29279;50.858;4.392;2023-05-07T07:33:36;10.63;;;3.72;;
43678;SDS011;29279;50.858;4.392;2023-05-07T07:36:02;11.75;;;3.60;;
43678;SDS011;29279;50.858;4.392;2023-05-07T07:38:28;11.00;;;3.60;;
43678;SDS011;29279;50.858;4.392;2023-05-07T07:40:54;14.68;;;3.78;;
43678;SDS011;29279;50.858;4.392;2023-05-07T07:43:19;10.38;;;3.67;;
43678;SDS011;29279;50.858;4.392;2023-05-07T07:45:45;7.97;;;3.53;;
43678;SDS011;29279;50.858;4.392;2023-05-07T07:48:11;6.47;;;2.63;;
43678;SDS011;29279;50.858;4.392;2023-05-07T07:50:37;10.60;;;3.22;;
43678;SDS011;29279;50.858;4.392;2023-05-07T07:53:03;9.40;;;3.63;;
43678;SDS011;29279;50.858;4.392;2023-05-07T07:55:29;12.82;;;3.85;;
43678;SDS011;29279;50.858;4.392;2023-05-07T07:57:56;11.40;;;3.85;;
43678;SDS011;29279;50.858;4.392;2023-05-07T08:00:21;11.43;;;3.95;;
43678;SDS011;29279;50.858;4.392;2023-05-07T08:02:47;10.07;;;3.50;;
43678;SDS011;29279;50.858;4.392;2023-05-07T08:05:13;14.93;;;3.75;;
43678;SDS011;29279;50.858;4.392;2023-05-07T08:07:40;9.40;;;3.83;;
43678;SDS011;29279;50.858;4.392;2023-05-07T08:10:05;8.32;;;2.97;;
43678;SDS011;29279;50.858;4.392;2023-05-07T08:12:31;10.90;;;3.40;;
43678;SDS011;29279;50.858;4.392;2023-05-07T08:14:57;12.73;;;4.03;;
43678;SDS011;29279;50.858;4.392;2023-05-07T08:17:24;10.18;;;3.65;;
43678;SDS011;29279;50.858;4.392;2023-05-07T08:19:49;12.38;;;3.72;;
43678;SDS011;29279;50.858;4.392;2023-05-07T08:22:15;7.55;;;3.42;;
43678;SDS011;29279;50.858;4.392;2023-05-07T08:24:42;10.98;;;3.88;;
43678;SDS011;29279;50.858;4.392;2023-05-07T08:27:08;9.35;;;3.60;;
43678;SDS011;29279;50.858;4.392;2023-05-07T08:29:34;11.52;;;3.85;;
43678;SDS011;29279;50.858;4.392;2023-05-07T08:32:00;13.07;;;4.68;;
43678;SDS011;29279;50.858;4.392;2023-05-07T08:34:26;10.63;;;3.90;;
43678;SDS011;29279;50.858;4.392;2023-05-07T08:36:52;12.15;;;4.43;;
43678;SDS011;29279;50.858;4.392;2023-05-07T08:39:17;12.00;;;3.53;;
43678;SDS011;29279;50.858;4.392;2023-05-07T08:41:46;8.82;;;4.07;;
43678;SDS011;29279;50.858;4.392;2023-05-07T08:44:15;11.17;;;3.80;;
43678;SDS011;29279;50.858;4.392;2023-05-07T08:46:43;10.90;;;4.45;;
43678;SDS011;29279;50.858;4.392;2023-05-07T08:49:13;11.52;;;4.13;;
43678;SDS011;29279;50.858;4.392;2023-05-07T08:51:39;7.97;;;3.22;;
43678;SDS011;29279;50.858;4.392;2023-05-07T08:54:07;10.32;;;3.55;;
43678;SDS011;29279;50.858;4.392;2023-05-07T08:56:34;7.90;;;3.83;;
43678;SDS011;29279;50.858;4.392;2023-05-07T08:58:59;15.30;;;6.75;;
43678;SDS011;29279;50.858;4.392;2023-05-07T09:01:25;19.02;;;6.75;;
43678;SDS011;29279;50.858;4.392;2023-05-07T09:03:51;12.52;;;5.72;;
43678;SDS011;29279;50.858;4.392;2023-05-07T09:06:18;13.40;;;5.05;;
43678;SDS011;29279;50.858;4.392;2023-05-07T09:08:50;12.50;;;5.30;;
43678;SDS011;29279;50.858;4.392;2023-05-07T09:11:19;10.30;;;4.70;;
43678;SDS011;29279;50.858;4.392;2023-05-07T09:13:46;12.90;;;5.68;;
43678;SDS011;29279;50.858;4.392;2023-05-07T09:16:12;13.50;;;5.28;;
43678;SDS011;29279;50.858;4.392;2023-05-07T09:18:44;14.20;;;5.03;;
43678;SDS011;29279;50.858;4.392;2023-05-07T09:21:16;12.20;;;5.30;;
43678;SDS011;29279;50.858;4.392;2023-05-07T09:23:43;17.45;;;6.22;;
43678;SDS011;29279;50.858;4.392;2023-05-07T09:26:08;13.07;;;6.10;;
43678;SDS011;29279;50.858;4.392;2023-05-07T09:28:43;14.65;;;6.05;;
43678;SDS011;29279;50.858;4.392;2023-05-07T09:31:10;10.13;;;5.35;;
43678;SDS011;29279;50.858;4.392;2023-05-07T09:33:36;14.57;;;5.35;;
43678;SDS011;29279;50.858;4.392;2023-05-07T09:36:03;14.40;;;4.88;;
43678;SDS011;29279;50.858;4.392;2023-05-07T09:38:31;13.27;;;5.05;;
43678;SDS011;29279;50.858;4.392;2023-05-07T09:41:08;11.88;;;5.40;;
43678;SDS011;29279;50.858;4.392;2023-05-07T09:43:35;13.48;;;5.68;;
43678;SDS011;29279;50.858;4.392;2023-05-07T09:46:03;14.70;;;5.25;;
43678;SDS011;29279;50.858;4.392;2023-05-07T09:48:39;11.57;;;5.53;;
43678;SDS011;29279;50.858;4.392;2023-05-07T09:53:56;13.57;;;5.65;;
43678;SDS011;29279;50.858;4.392;2023-05-07T09:56:26;11.65;;;4.60;;
43678;SDS011;29279;50.858;4.392;2023-05-07T09:58:52;8.70;;;3.92;;
43678;SDS011;29279;50.858;4.392;2023-05-07T10:01:21;10.52;;;4.15;;
43678;SDS011;29279;50.858;4.392;2023-05-07T10:03:47;11.35;;;4.13;;
43678;SDS011;29279;50.858;4.392;2023-05-07T10:06:15;11.77;;;4.53;;
43678;SDS011;29279;50.858;4.392;2023-05-07T10:08:42;10.90;;;4.25;;
43678;SDS011;29279;50.858;4.392;2023-05-07T10:11:08;11.52;;;4.50;;
43678;SDS011;29279;50.858;4.392;2023-05-07T10:13:35;9.77;;;3.38;;
43678;SDS011;29279;50.858;4.392;2023-05-07T10:16:05;7.95;;;3.70;;
43678;SDS011;29279;50.858;4.392;2023-05-07T10:18:31;11.25;;;3.25;;
43678;SDS011;29279;50.858;4.392;2023-05-07T10:21:06;11.32;;;3.20;;
43678;SDS011;29279;50.858;4.392;2023-05-07T10:23:36;8.10;;;2.58;;
43678;SDS011;29279;50.858;4.392;2023-05-07T10:26:04;6.45;;;2.95;;
43678;SDS011;29279;50.858;4.392;2023-05-07T10:28:34;8.45;;;2.92;;
43678;SDS011;29279;50.858;4.392;2023-05-07T10:31:15;8.95;;;2.90;;
43678;SDS011;29279;50.858;4.392;2023-05-07T10:33:51;7.68;;;3.30;;
43678;SDS011;29279;50.858;4.392;2023-05-07T10:36:19;10.10;;;2.95;;
43678;SDS011;29279;50.858;4.392;2023-05-07T10:38:47;6.30;;;2.28;;
43678;SDS011;29279;50.858;4.392;2023-05-07T10:41:12;7.35;;;2.90;;
43678;SDS011;29279;50.858;4.392;2023-05-07T10:46:17;8.25;;;2.70;;
43678;SDS011;29279;50.858;4.392;2023-05-07T10:51:29;7.28;;;2.83;;
43678;SDS011;29279;50.858;4.392;2023-05-07T10:56:35;8.80;;;3.10;;
43678;SDS011;29279;50.858;4.392;2023-05-07T11:04:15;6.78;;;3.17;;
43678;SDS011;29279;50.858;4.392;2023-05-07T11:06:42;8.57;;;3.17;;
43678;SDS011;29279;50.858;4.392;2023-05-07T11:15:08;6.40;;;2.78;;
43678;SDS011;29279;50.858;4.392;2023-05-07T11:17:34;7.50;;;3.17;;
43678;SDS011;29279;50.858;4.392;2023-05-07T11:22:43;6.88;;;3.05;;
43678;SDS011;29279;50.858;4.392;2023-05-07T11:25:09;6.30;;;2.42;;
43678;SDS011;29279;50.858;4.392;2023-05-07T11:27:34;5.18;;;2.20;;
43678;SDS011;29279;50.858;4.392;2023-05-07T11:30:00;6.38;;;2.55;;
43678;SDS011;29279;50.858;4.392;2023-05-07T11:32:30;6.82;;;2.65;;
43678;SDS011;29279;50.858;4.392;2023-05-07T11:34:57;7.82;;;2.72;;
43678;SDS011;29279;50.858;4.392;2023-05-07T11:37:25;4.97;;;2.30;;
43678;SDS011;29279;50.858;4.392;2023-05-07T11:42:34;4.20;;;2.45;;
43678;SDS011;29279;50.858;4.392;2023-05-07T11:45:02;5.87;;;2.27;;
43678;SDS011;29279;50.858;4.392;2023-05-07T11:47:31;7.20;;;3.10;;
43678;SDS011;29279;50.858;4.392;2023-05-07T11:50:02;9.38;;;2.85;;
43678;SDS011;29279;50.858;4.392;2023-05-07T11:52:30;7.32;;;2.40;;
43678;SDS011;29279;50.858;4.392;2023-05-07T11:54:57;5.80;;;2.20;;
43678;SDS011;29279;50.858;4.392;2023-05-07T11:57:25;3.25;;;1.77;;
43678;SDS011;29279;50.858;4.392;2023-05-07T11:59:58;7.55;;;2.20;;
43678;SDS011;29279;50.858;4.392;2023-05-07T12:02:27;5.75;;;2.30;;
43678;SDS011;29279;50.858;4.392;2023-05-07T12:04:53;7.95;;;2.40;;
43678;SDS011;29279;50.858;4.392;2023-05-07T12:07:19;5.47;;;1.98;;
43678;SDS011;29279;50.858;4.392;2023-05-07T12:09:46;5.13;;;2.40;;
43678;SDS011;29279;50.858;4.392;2023-05-07T12:12:13;6.55;;;2.47;;
43678;SDS011;29279;50.858;4.392;2023-05-07T12:14:43;7.50;;;2.38;;
43678;SDS011;29279;50.858;4.392;2023-05-07T12:17:10;4.63;;;2.20;;
43678;SDS011;29279;50.858;4.392;2023-05-07T12:19:37;4.88;;;2.40;;
43678;SDS011;29279;50.858;4.392;2023-05-07T12:22:04;7.50;;;2.40;;
43678;SDS011;29279;50.858;4.392;2023-05-07T12:24:45;5.05;;;2.28;;
43678;SDS011;29279;50.858;4.392;2023-05-07T12:27:14;3.85;;;2.00;;
43678;SDS011;29279;50.858;4.392;2023-05-07T12:29:47;7.25;;;2.30;;
43678;SDS011;29279;50.858;4.392;2023-05-07T12:34:41;8.43;;;3.05;;
43678;SDS011;29279;50.858;4.392;2023-05-07T12:37:06;6.30;;;3.30;;
43678;SDS011;29279;50.858;4.392;2023-05-07T12:39:32;6.82;;;3.00;;
43678;SDS011;29279;50.858;4.392;2023-05-07T12:41:59;6.65;;;3.15;;
43678;SDS011;29279;50.858;4.392;2023-05-07T12:44:25;4.78;;;2.42;;
43678;SDS011;29279;50.858;4.392;2023-05-07T12:46:55;5.72;;;2.83;;
43678;SDS011;29279;50.858;4.392;2023-05-07T12:49:20;7.53;;;2.83;;
43678;SDS011;29279;50.858;4.392;2023-05-07T12:51:47;8.10;;;3.15;;
43678;SDS011;29279;50.858;4.392;2023-05-07T12:54:14;5.05;;;2.85;;
43678;SDS011;29279;50.858;4.392;2023-05-07T12:57:03;15.90;;;3.42;;
43678;SDS011;29279;50.858;4.392;2023-05-07T12:59:40;6.50;;;3.42;;
43678;SDS011;29279;50.858;4.392;2023-05-07T13:02:06;7.72;;;3.60;;
43678;SDS011;29279;50.858;4.392;2023-05-07T13:04:33;8.38;;;3.50;;
43678;SDS011;29279;50.858;4.392;2023-05-07T13:06:59;6.50;;;3.78;;
43678;SDS011;29279;50.858;4.392;2023-05-07T13:09:25;5.28;;;3.42;;
43678;SDS011;29279;50.858;4.392;2023-05-07T13:11:51;5.82;;;3.83;;
43678;SDS011;29279;50.858;4.392;2023-05-07T13:14:16;5.65;;;3.55;;
43678;SDS011;29279;50.858;4.392;2023-05-07T13:16:42;6.68;;;3.20;;
43678;SDS011;29279;50.858;4.392;2023-05-07T13:19:08;7.55;;;3.60;;
43678;SDS011;29279;50.858;4.392;2023-05-07T13:21:34;6.82;;;4.53;;
43678;SDS011;29279;50.858;4.392;2023-05-07T13:23:59;6.55;;;4.13;;
43678;SDS011;29279;50.858;4.392;2023-05-07T13:26:25;10.23;;;4.43;;
43678;SDS011;29279;50.858;4.392;2023-05-07T13:28:54;8.65;;;5.03;;
43678;SDS011;29279;50.858;4.392;2023-05-07T13:31:20;7.78;;;5.20;;
43678;SDS011;29279;50.858;4.392;2023-05-07T13:33:46;10.75;;;6.50;;
43678;SDS011;29279;50.858;4.392;2023-05-07T13:36:12;10.20;;;6.40;;
43678;SDS011;29279;50.858;4.392;2023-05-07T13:38:38;10.52;;;7.13;;
43678;SDS011;29279;50.858;4.392;2023-05-07T13:41:04;10.98;;;7.10;;
43678;SDS011;29279;50.858;4.392;2023-05-07T13:43:30;10.52;;;6.95;;
43678;SDS011;29279;50.858;4.392;2023-05-07T13:45:58;12.55;;;8.00;;
43678;SDS011;29279;50.858;4.392;2023-05-07T13:48:24;12.23;;;8.98;;
43678;SDS011;29279;50.858;4.392;2023-05-07T13:50:50;12.23;;;8.23;;
43678;SDS011;29279;50.858;4.392;2023-05-07T13:53:16;10.07;;;7.25;;
43678;SDS011;29279;50.858;4.392;2023-05-07T13:55:43;8.85;;;7.70;;
43678;SDS011;29279;50.858;4.392;2023-05-07T13:58:09;10.05;;;7.78;;
43678;SDS011;29279;50.858;4.392;2023-05-07T14:00:35;12.48;;;7.93;;
43678;SDS011;29279;50.858;4.392;2023-05-07T14:03:01;11.27;;;8.35;;
43678;SDS011;29279;50.858;4.392;2023-05-07T14:05:27;13.05;;;8.75;;
43678;SDS011;29279;50.858;4.392;2023-05-07T14:07:53;11.70;;;8.60;;
43678;SDS011;29279;50.858;4.392;2023-05-07T14:10:19;12.43;;;9.82;;
43678;SDS011;29279;50.858;4.392;2023-05-07T14:12:45;13.52;;;9.48;;
43678;SDS011;29279;50.858;4.392;2023-05-07T14:15:15;14.43;;;10.27;;
43678;SDS011;29279;50.858;4.392;2023-05-07T14:17:41;11.20;;;9.60;;
43678;SDS011;29279;50.858;4.392;2023-05-07T14:20:07;12.90;;;9.77;;
43678;SDS011;29279;50.858;4.392;2023-05-07T14:22:33;13.25;;;9.18;;
43678;SDS011;29279;50.858;4.392;2023-05-07T14:24:59;10.15;;;8.52;;
43678;SDS011;29279;50.858;4.392;2023-05-07T14:27:25;10.82;;;8.70;;
43678;SDS011;29279;50.858;4.392;2023-05-07T14:29:51;10.10;;;8.93;;
43678;SDS011;29279;50.858;4.392;2023-05-07T14:32:17;11.60;;;8.60;;
43678;SDS011;29279;50.858;4.392;2023-05-07T14:34:43;11.60;;;9.02;;
43678;SDS011;29279;50.858;4.392;2023-05-07T14:37:09;11.38;;;9.50;;
43678;SDS011;29279;50.858;4.392;2023-05-07T14:39:35;16.95;;;9.15;;
43678;SDS011;29279;50.858;4.392;2023-05-07T14:42:01;11.18;;;8.63;;
43678;SDS011;29279;50.858;4.392;2023-05-07T14:44:27;13.00;;;9.85;;
43678;SDS011;29279;50.858;4.392;2023-05-07T14:46:53;10.95;;;9.50;;
43678;SDS011;29279;50.858;4.392;2023-05-07T14:49:19;12.65;;;9.57;;
43678;SDS011;29279;50.858;4.392;2023-05-07T14:51:45;12.43;;;9.18;;
43678;SDS011;29279;50.858;4.392;2023-05-07T14:54:12;11.27;;;8.52;;
43678;SDS011;29279;50.858;4.392;2023-05-07T14:56:38;32.08;;;12.95;;
43678;SDS011;29279;50.858;4.392;2023-05-07T14:59:05;15.25;;;9.90;;
43678;SDS011;29279;50.858;4.392;2023-05-07T15:01:30;13.82;;;9.35;;
43678;SDS011;29279;50.858;4.392;2023-05-07T15:03:56;16.23;;;9.90;;